createdAt,value
2019-05-25T00:01:33.899Z,1.80
2019-05-25T00:06:38.614Z,1.42
2019-05-25T00:11:43.333Z,1.90
2019-05-25T00:16:48.124Z,1.77
2019-05-25T00:21:53.004Z,1.82
2019-05-25T00:26:57.840Z,1.75
2019-05-25T00:32:02.664Z,1.90
2019-05-25T00:37:07.402Z,1.90
2019-05-25T00:42:12.338Z,1.90
2019-05-25T00:47:17.196Z,1.50
2019-05-25T00:52:22.000Z,1.32
2019-05-25T00:57:26.953Z,1.20
2019-05-25T01:02:32.019Z,1.50
2019-05-25T01:07:37.183Z,1.52
2019-05-25T01:12:41.993Z,1.40
2019-05-25T01:17:46.819Z,1.40
2019-05-25T01:22:51.602Z,1.22
2019-05-25T01:27:56.334Z,1.60
2019-05-25T01:33:01.043Z,1.60
2019-05-25T01:38:05.927Z,1.65
2019-05-25T01:43:10.735Z,1.50
2019-05-25T01:48:15.525Z,1.70
2019-05-25T01:53:20.275Z,2.05
2019-05-25T01:58:25.019Z,2.02
2019-05-25T02:03:29.820Z,1.70
2019-05-25T02:08:34.597Z,1.70
2019-05-25T02:13:39.653Z,1.72
2019-05-25T02:18:45.720Z,1.72
2019-05-25T02:23:51.016Z,1.90
2019-05-25T02:28:55.849Z,1.80
2019-05-25T02:34:00.610Z,2.00
2019-05-25T02:39:07.320Z,1.98
2019-05-25T02:44:12.204Z,1.98
2019-05-25T02:49:16.977Z,2.20
2019-05-25T02:54:22.746Z,2.00
2019-05-25T02:59:27.497Z,2.02
2019-05-25T03:04:32.402Z,2.00
2019-05-25T03:09:38.681Z,2.47
2019-05-25T03:14:43.534Z,2.17
2019-05-25T03:19:48.345Z,2.30
2019-05-25T03:24:53.115Z,2.27
2019-05-25T03:29:57.980Z,1.95
2019-05-25T03:35:03.794Z,1.87
2019-05-25T03:40:09.703Z,1.92
2019-05-25T03:45:14.731Z,1.90
2019-05-25T03:50:19.895Z,2.33
2019-05-25T03:55:24.739Z,1.95
2019-05-25T04:00:34.743Z,1.80
2019-05-25T04:05:39.885Z,2.00
2019-05-25T04:10:44.725Z,1.98
2019-05-25T04:15:49.469Z,2.22
2019-05-25T04:20:54.329Z,1.92
2019-05-25T04:25:59.169Z,2.02
2019-05-25T04:31:04.950Z,1.82
2019-05-25T04:36:09.714Z,1.90
2019-05-25T04:41:14.679Z,1.70
2019-05-25T04:46:21.526Z,1.90
2019-05-25T04:51:26.014Z,1.50
2019-05-25T04:56:39.456Z,1.80
2019-05-25T05:01:37.324Z,1.40
2019-05-25T05:06:42.214Z,1.55
2019-05-25T05:11:47.072Z,1.80
2019-05-25T05:16:51.821Z,1.55
2019-05-25T05:21:56.639Z,1.70
2019-05-25T05:27:01.751Z,1.62
2019-05-25T05:32:06.696Z,1.40
2019-05-25T05:37:12.452Z,1.30
2019-05-25T05:42:19.165Z,1.60
2019-05-25T05:47:25.998Z,1.22
2019-05-25T05:52:33.830Z,1.30
2019-05-25T05:57:38.564Z,1.42
2019-05-25T06:02:43.388Z,1.52
2019-05-25T06:07:48.190Z,1.50
2019-05-25T06:12:52.918Z,1.90
2019-05-25T06:17:58.081Z,1.65
2019-05-25T06:23:02.788Z,2.10
2019-05-25T06:28:07.479Z,1.82
2019-05-25T06:33:12.236Z,1.35
2019-05-25T06:38:17.038Z,1.85
2019-05-25T06:43:22.103Z,1.47
2019-05-25T06:48:26.840Z,1.45
2019-05-25T06:53:31.635Z,1.60
2019-05-25T06:58:36.558Z,1.50
2019-05-25T07:03:41.311Z,1.80
2019-05-25T07:08:46.127Z,1.52
2019-05-25T07:13:50.847Z,1.82
2019-05-25T07:18:55.570Z,1.67
2019-05-25T07:24:00.321Z,1.70
2019-05-25T07:29:05.609Z,2.50
2019-05-25T07:34:11.853Z,2.30
2019-05-25T07:39:17.661Z,2.45
2019-05-25T07:44:22.365Z,1.90
2019-05-25T07:49:27.111Z,2.15
2019-05-25T07:54:31.839Z,2.10
2019-05-25T07:59:36.651Z,2.02
2019-05-25T08:04:41.635Z,2.60
2019-05-25T08:09:46.435Z,2.58
2019-05-25T08:14:51.160Z,2.30
2019-05-25T08:19:55.878Z,2.12
2019-05-25T08:25:00.612Z,1.95
2019-05-25T08:30:06.227Z,2.20
2019-05-25T08:35:11.810Z,2.57
2019-05-25T08:40:17.029Z,2.53
2019-05-25T08:45:21.904Z,2.40
2019-05-25T08:50:37.983Z,2.70
2019-05-25T08:55:33.203Z,2.70
2019-05-25T09:00:38.457Z,2.45
2019-05-25T09:05:43.298Z,2.45
2019-05-25T09:10:48.104Z,3.05
2019-05-25T09:15:52.821Z,2.80
2019-05-25T09:20:57.660Z,2.65
2019-05-25T09:26:02.363Z,2.30
2019-05-25T09:31:07.192Z,1.80
2019-05-25T09:36:11.995Z,2.00
2019-05-25T09:41:16.707Z,2.00
2019-05-25T09:46:21.431Z,2.20
2019-05-25T09:51:26.592Z,2.02
2019-05-25T09:56:31.511Z,1.80
2019-05-25T10:01:36.296Z,2.05
2019-05-25T10:06:42.200Z,1.82
2019-05-25T10:11:47.002Z,1.98
2019-05-25T10:16:51.850Z,1.95
2019-05-25T10:21:59.367Z,1.82
2019-05-25T10:27:03.543Z,2.17
2019-05-25T10:32:08.266Z,2.22
2019-05-25T10:37:12.973Z,2.10
2019-05-25T10:42:17.858Z,2.15
2019-05-25T10:47:23.549Z,1.87
2019-05-25T10:52:28.273Z,2.52
2019-05-25T10:57:33.103Z,1.80
2019-05-25T11:02:37.853Z,2.40
2019-05-25T11:07:42.617Z,2.75
2019-05-25T11:12:47.431Z,2.10
2019-05-25T11:17:52.482Z,2.15
2019-05-25T11:22:57.247Z,2.17
2019-05-25T11:28:02.008Z,2.37
2019-05-25T11:33:06.905Z,2.15
2019-05-25T11:38:11.738Z,2.08
2019-05-25T11:43:16.567Z,2.47
2019-05-25T11:48:21.602Z,2.00
2019-05-25T11:53:26.347Z,1.75
2019-05-25T11:58:39.121Z,1.72
2019-05-25T12:03:38.512Z,1.90
2019-05-25T12:08:44.208Z,1.80
2019-05-25T12:13:48.961Z,1.80
2019-05-25T12:18:53.862Z,1.40
2019-05-25T12:23:58.607Z,1.62
2019-05-25T12:29:03.596Z,1.42
2019-05-25T12:34:08.308Z,1.67
2019-05-25T12:39:13.018Z,1.70
2019-05-25T12:44:17.739Z,1.83
2019-05-25T12:49:22.506Z,2.00
2019-05-25T12:54:27.417Z,1.70
2019-05-25T12:59:32.221Z,1.60
2019-05-25T13:04:37.614Z,1.77
2019-05-25T13:09:43.511Z,1.70
2019-05-25T13:14:48.527Z,1.80
2019-05-25T13:19:53.255Z,1.90
2019-05-25T13:24:58.117Z,1.87
2019-05-25T13:30:03.449Z,1.98
2019-05-25T13:35:08.932Z,1.77
2019-05-25T13:40:13.909Z,1.77
2019-05-25T13:45:18.662Z,2.60
2019-05-25T13:50:23.568Z,1.90
2019-05-25T13:55:28.419Z,1.75
2019-05-25T14:00:33.423Z,1.87
2019-05-25T14:05:38.174Z,2.00
2019-05-25T14:10:42.915Z,1.80
2019-05-25T14:15:47.659Z,2.08
2019-05-25T14:20:52.499Z,2.05
2019-05-25T14:25:57.235Z,2.20
2019-05-25T14:31:02.134Z,2.23
2019-05-25T14:36:07.378Z,2.12
2019-05-25T14:41:12.444Z,1.92
2019-05-25T14:46:27.367Z,2.47
2019-05-25T14:51:23.768Z,2.12
2019-05-25T14:56:28.810Z,1.90
2019-05-25T15:01:33.674Z,1.82
2019-05-25T15:06:38.894Z,1.82
2019-05-25T15:11:43.989Z,1.70
2019-05-25T15:16:48.703Z,1.75
2019-05-25T15:21:53.663Z,1.87
2019-05-25T15:26:58.464Z,2.10
2019-05-25T15:32:18.755Z,1.90
2019-05-25T15:37:10.080Z,1.87
2019-05-25T15:42:14.879Z,1.90
2019-05-25T15:47:19.748Z,2.00
2019-05-25T15:52:24.899Z,2.00
2019-05-25T15:57:29.721Z,1.60
2019-05-25T16:02:36.941Z,1.95
2019-05-25T16:07:44.421Z,2.00
2019-05-25T16:12:49.238Z,2.12
2019-05-25T16:17:55.194Z,2.60
2019-05-25T16:22:59.996Z,1.98
2019-05-25T16:28:04.975Z,2.00
2019-05-25T16:33:13.747Z,1.98
2019-05-25T16:38:16.242Z,1.80
2019-05-25T16:43:20.968Z,2.15
2019-05-25T16:48:25.866Z,1.90
2019-05-25T16:53:30.852Z,1.80
2019-05-25T16:58:35.689Z,1.77
2019-05-25T17:03:40.571Z,1.67
2019-05-25T17:08:45.373Z,1.52
2019-05-25T17:13:50.199Z,1.82
2019-05-25T17:18:54.976Z,1.70
2019-05-25T17:23:59.782Z,1.72
2019-05-25T17:29:04.932Z,1.70
2019-05-25T17:34:10.036Z,1.50
2019-05-25T17:39:14.867Z,2.20
2019-05-25T17:44:19.712Z,1.67
2019-05-25T17:49:24.416Z,1.40
2019-05-25T17:54:29.207Z,1.72
2019-05-25T17:59:33.943Z,1.75
2019-05-25T18:04:39.692Z,1.75
2019-05-25T18:09:45.529Z,1.57
2019-05-25T18:14:50.253Z,1.70
2019-05-25T18:19:55.032Z,1.75
2019-05-25T18:24:59.848Z,1.60
2019-05-25T18:30:06.553Z,1.72
2019-05-25T18:35:11.550Z,1.90
2019-05-25T18:40:16.613Z,1.80
2019-05-25T18:45:21.495Z,1.87
2019-05-25T18:50:26.645Z,1.75
2019-05-25T18:55:32.077Z,2.30
2019-05-25T19:00:37.092Z,1.98
2019-05-25T19:05:41.953Z,2.12
2019-05-25T19:10:47.063Z,2.37
2019-05-25T19:15:51.886Z,1.95
2019-05-25T19:20:56.631Z,2.72
2019-05-25T19:26:01.486Z,2.15
2019-05-25T19:31:06.466Z,2.22
2019-05-25T19:36:11.356Z,2.40
2019-05-25T19:41:16.146Z,2.60
2019-05-25T19:46:21.221Z,2.17
2019-05-25T19:51:26.056Z,2.83
2019-05-25T19:56:30.911Z,3.52
2019-05-25T20:01:35.783Z,3.00
2019-05-25T20:06:40.526Z,3.40
2019-05-25T20:11:45.334Z,2.95
2019-05-25T20:16:50.278Z,3.65
2019-05-25T20:21:55.413Z,4.33
2019-05-25T20:27:01.667Z,6.12
2019-05-25T20:32:07.752Z,5.70
2019-05-25T20:37:12.549Z,5.58
2019-05-25T20:42:17.377Z,4.78
2019-05-25T20:47:22.260Z,4.60
2019-05-25T20:52:26.983Z,4.65
2019-05-25T20:57:31.719Z,3.83
2019-05-25T21:02:36.608Z,3.75
2019-05-25T21:07:41.427Z,3.35
2019-05-25T21:12:46.444Z,3.60
2019-05-25T21:17:51.417Z,3.62
2019-05-25T21:22:56.411Z,3.42
2019-05-25T21:28:01.143Z,3.62
2019-05-25T21:33:05.899Z,4.25
2019-05-25T21:38:10.745Z,3.87
2019-05-25T21:43:15.459Z,4.05
2019-05-25T21:48:20.273Z,3.50
2019-05-25T21:53:25.068Z,3.83
2019-05-25T21:58:29.791Z,3.47
2019-05-25T22:03:34.552Z,3.80
2019-05-25T22:08:39.380Z,3.87
2019-05-25T22:13:44.108Z,4.15
2019-05-25T22:18:49.133Z,4.25
2019-05-25T22:23:53.896Z,4.30
2019-05-25T22:29:00.038Z,3.83
2019-05-25T22:34:04.986Z,4.20
2019-05-25T22:39:09.826Z,4.05
2019-05-25T22:44:14.575Z,4.57
2019-05-25T22:49:19.318Z,4.62
2019-05-25T22:54:24.038Z,5.10
2019-05-25T22:59:28.837Z,4.85
2019-05-25T23:04:33.630Z,4.25
2019-05-25T23:09:39.429Z,4.92
2019-05-25T23:14:44.193Z,4.42
2019-05-25T23:19:48.945Z,4.22
2019-05-25T23:24:53.669Z,4.30
2019-05-25T23:29:58.723Z,4.47
2019-05-25T23:35:03.619Z,4.60
2019-05-25T23:40:08.925Z,4.50
2019-05-25T23:45:15.359Z,4.60
2019-05-25T23:50:20.274Z,4.80
2019-05-25T23:55:25.056Z,4.87
